sensor_id;sensor_type;location;lat;lon;timestamp;pressure;altitude;pressure_sealevel;temperature;humidity
17785;BME280;9016;53.582;10.062;2023-02-14T00:01:29;103695.38;;;8.78;65.26
17785;BME280;9016;53.582;10.062;2023-02-14T00:03:57;103694.47;;;8.87;65.42
17785;BME280;9016;53.582;10.062;2023-02-14T00:06:27;103698.78;;;8.98;65.28
17785;BME280;9016;53.582;10.062;2023-02-14T00:08:55;103695.38;;;8.80;64.75
17785;BME280;9016;53.582;10.062;2023-02-14T00:11:23;103694.50;;;8.79;65.34
17785;BME280;9016;53.582;10.062;2023-02-14T00:13:55;103703.41;;;8.68;64.73
17785;BME280;9016;53.582;10.062;2023-02-14T00:16:41;103702.50;;;8.78;65.56
17785;BME280;9016;53.582;10.062;2023-02-14T00:19:11;103701.63;;;8.76;64.98
17785;BME280;9016;53.582;10.062;2023-02-14T00:21:39;103705.16;;;8.78;65.10
17785;BME280;9016;53.582;10.062;2023-02-14T00:24:09;103710.41;;;8.84;64.73
17785;BME280;9016;53.582;10.062;2023-02-14T00:26:38;103710.44;;;8.81;65.81
17785;BME280;9016;53.582;10.062;2023-02-14T00:29:10;103715.66;;;8.93;65.46
17785;BME280;9016;53.582;10.062;2023-02-14T00:31:39;103705.03;;;8.93;65.44
17785;BME280;9016;53.582;10.062;2023-02-14T00:34:08;103710.41;;;8.87;65.59
17785;BME280;9016;53.582;10.062;2023-02-14T00:36:37;103708.75;;;8.66;65.23
17785;BME280;9016;53.582;10.062;2023-02-14T00:39:06;103707.00;;;8.61;66.12
17785;BME280;9016;53.582;10.062;2023-02-14T00:41:35;103704.38;;;8.50;65.22
17785;BME280;9016;53.582;10.062;2023-02-14T00:44:03;103700.78;;;8.60;66.22
17785;BME280;9016;53.582;10.062;2023-02-14T00:46:33;103698.09;;;8.69;65.89
17785;BME280;9016;53.582;10.062;2023-02-14T00:49:02;103697.25;;;8.58;66.09
17785;BME280;9016;53.582;10.062;2023-02-14T00:51:30;103693.72;;;8.61;66.26
17785;BME280;9016;53.582;10.062;2023-02-14T00:53:58;103700.78;;;8.63;65.75
17785;BME280;9016;53.582;10.062;2023-02-14T00:56:26;103697.22;;;8.64;65.63
17785;BME280;9016;53.582;10.062;2023-02-14T00:58:54;103699.00;;;8.64;65.60
17785;BME280;9016;53.582;10.062;2023-02-14T01:01:22;103690.09;;;8.71;65.00
17785;BME280;9016;53.582;10.062;2023-02-14T01:03:51;103688.38;;;8.67;65.25
17785;BME280;9016;53.582;10.062;2023-02-14T01:06:19;103685.75;;;8.55;65.59
17785;BME280;9016;53.582;10.062;2023-02-14T01:08:47;103689.38;;;8.39;65.77
17785;BME280;9016;53.582;10.062;2023-02-14T01:11:17;103692.84;;;8.53;66.14
17785;BME280;9016;53.582;10.062;2023-02-14T01:13:47;103685.75;;;8.61;66.26
17785;BME280;9016;53.582;10.062;2023-02-14T01:16:17;103685.69;;;8.65;65.77
17785;BME280;9016;53.582;10.062;2023-02-14T01:18:46;103682.25;;;8.50;66.02
17785;BME280;9016;53.582;10.062;2023-02-14T01:21:17;103685.81;;;8.44;66.49
17785;BME280;9016;53.582;10.062;2023-02-14T01:23:48;103685.81;;;8.46;66.97
17785;BME280;9016;53.582;10.062;2023-02-14T01:26:16;103676.94;;;8.47;66.62
17785;BME280;9016;53.582;10.062;2023-02-14T01:28:44;103668.94;;;8.51;67.01
17785;BME280;9016;53.582;10.062;2023-02-14T01:31:15;103676.88;;;8.60;66.22
17785;BME280;9016;53.582;10.062;2023-02-14T01:33:45;103673.34;;;8.61;65.91
17785;BME280;9016;53.582;10.062;2023-02-14T01:36:20;103669.81;;;8.50;66.06
17785;BME280;9016;53.582;10.062;2023-02-14T01:38:50;103671.66;;;8.41;65.63
17785;BME280;9016;53.582;10.062;2023-02-14T01:41:19;103670.81;;;8.37;66.99
17785;BME280;9016;53.582;10.062;2023-02-14T01:43:53;103670.75;;;8.42;66.83
17785;BME280;9016;53.582;10.062;2023-02-14T01:46:23;103670.72;;;8.49;67.15
17785;BME280;9016;53.582;10.062;2023-02-14T01:48:53;103668.91;;;8.59;66.21
17785;BME280;9016;53.582;10.062;2023-02-14T01:51:24;103670.72;;;8.49;65.83
17785;BME280;9016;53.582;10.062;2023-02-14T01:53:52;103666.28;;;8.57;66.61
17785;BME280;9016;53.582;10.062;2023-02-14T01:56:26;103667.13;;;8.61;65.42
17785;BME280;9016;53.582;10.062;2023-02-14T01:58:57;103656.50;;;8.56;66.66
17785;BME280;9016;53.582;10.062;2023-02-14T02:01:27;103664.47;;;8.58;65.98
17785;BME280;9016;53.582;10.062;2023-02-14T02:03:58;103652.06;;;8.63;66.34
17785;BME280;9016;53.582;10.062;2023-02-14T02:06:32;103648.47;;;8.70;66.68
17785;BME280;9016;53.582;10.062;2023-02-14T02:09:07;103657.28;;;8.76;66.06
17785;BME280;9016;53.582;10.062;2023-02-14T02:11:37;103651.09;;;8.71;66.42
17785;BME280;9016;53.582;10.062;2023-02-14T02:14:08;103651.16;;;8.62;65.33
17785;BME280;9016;53.582;10.062;2023-02-14T02:16:54;103644.97;;;8.56;66.85
17785;BME280;9016;53.582;10.062;2023-02-14T02:19:50;103650.25;;;8.63;65.54
17785;BME280;9016;53.582;10.062;2023-02-14T02:22:49;103649.41;;;8.60;65.60
17785;BME280;9016;53.582;10.062;2023-02-14T02:25:39;103639.63;;;8.63;65.95
17785;BME280;9016;53.582;10.062;2023-02-14T02:28:31;103635.22;;;8.61;65.58
17785;BME280;9016;53.582;10.062;2023-02-14T02:31:22;103644.19;;;8.46;65.82
17785;BME280;9016;53.582;10.062;2023-02-14T02:34:25;103638.03;;;8.31;67.34
17785;BME280;9016;53.582;10.062;2023-02-14T02:37:13;103640.72;;;8.20;66.74
17785;BME280;9016;53.582;10.062;2023-02-14T02:40:02;103634.50;;;8.21;67.92
17785;BME280;9016;53.582;10.062;2023-02-14T02:42:39;103635.41;;;8.28;67.59
17785;BME280;9016;53.582;10.062;2023-02-14T02:45:19;103635.41;;;8.29;67.16
17785;BME280;9016;53.582;10.062;2023-02-14T02:47:56;103637.13;;;8.36;66.89
17785;BME280;9016;53.582;10.062;2023-02-14T02:50:29;103630.94;;;8.39;67.12
17785;BME280;9016;53.582;10.062;2023-02-14T02:53:22;103634.50;;;8.33;67.59
17785;BME280;9016;53.582;10.062;2023-02-14T02:55:54;103636.22;;;8.40;67.00
17785;BME280;9016;53.582;10.062;2023-02-14T02:58:44;103626.47;;;8.42;66.81
17785;BME280;9016;53.582;10.062;2023-02-14T03:01:15;103633.53;;;8.49;66.92
17785;BME280;9016;53.582;10.062;2023-02-14T03:03:47;103632.66;;;8.46;66.89
17785;BME280;9016;53.582;10.062;2023-02-14T03:06:34;103631.78;;;8.44;66.79
17785;BME280;9016;53.582;10.062;2023-02-14T03:09:11;103634.41;;;8.47;66.18
17785;BME280;9016;53.582;10.062;2023-02-14T03:11:46;103632.66;;;8.41;66.57
17785;BME280;9016;53.582;10.062;2023-02-14T03:14:20;103624.75;;;8.35;67.49
17785;BME280;9016;53.582;10.062;2023-02-14T03:17:02;103627.41;;;8.35;66.80
17785;BME280;9016;53.582;10.062;2023-02-14T03:19:46;103625.66;;;8.27;67.34
17785;BME280;9016;53.582;10.062;2023-02-14T03:22:43;103617.69;;;8.22;67.39
17785;BME280;9016;53.582;10.062;2023-02-14T03:25:27;103618.59;;;8.20;66.90
17785;BME280;9016;53.582;10.062;2023-02-14T03:28:06;103623.00;;;8.18;66.87
17785;BME280;9016;53.582;10.062;2023-02-14T03:30:45;103623.91;;;8.17;67.32
17785;BME280;9016;53.582;10.062;2023-02-14T03:33:17;103622.16;;;8.19;67.49
17785;BME280;9016;53.582;10.062;2023-02-14T03:35:53;103621.22;;;8.23;67.80
17785;BME280;9016;53.582;10.062;2023-02-14T03:38:30;103625.66;;;8.22;66.73
17785;BME280;9016;53.582;10.062;2023-02-14T03:41:06;103627.50;;;8.07;67.50
17785;BME280;9016;53.582;10.062;2023-02-14T03:43:36;103622.28;;;7.81;68.79
17785;BME280;9016;53.582;10.062;2023-02-14T03:46:09;103616.03;;;7.88;69.33
17785;BME280;9016;53.582;10.062;2023-02-14T03:48:39;103612.53;;;7.89;68.99
17785;BME280;9016;53.582;10.062;2023-02-14T03:51:10;103611.66;;;7.85;69.22
17785;BME280;9016;53.582;10.062;2023-02-14T03:53:43;103623.09;;;7.93;68.50
17785;BME280;9016;53.582;10.062;2023-02-14T03:56:16;103606.25;;;8.03;68.77
17785;BME280;9016;53.582;10.062;2023-02-14T03:58:47;103602.75;;;7.98;67.99
17785;BME280;9016;53.582;10.062;2023-02-14T04:01:20;103602.72;;;8.01;68.29
17785;BME280;9016;53.582;10.062;2023-02-14T04:03:51;103604.50;;;7.99;68.43
17785;BME280;9016;53.582;10.062;2023-02-14T04:06:20;103599.19;;;8.06;68.63
17785;BME280;9016;53.582;10.062;2023-02-14T04:08:48;103600.03;;;8.09;68.41
17785;BME280;9016;53.582;10.062;2023-02-14T04:11:18;103594.72;;;8.06;68.66
17785;BME280;9016;53.582;10.062;2023-02-14T04:13:48;103588.56;;;8.06;68.55
17785;BME280;9016;53.582;10.062;2023-02-14T04:16:15;103593.84;;;8.02;68.97
17785;BME280;9016;53.582;10.062;2023-02-14T04:18:44;103594.78;;;7.95;69.41
17785;BME280;9016;53.582;10.062;2023-02-14T04:21:29;103589.50;;;7.86;69.83
17785;BME280;9016;53.582;10.062;2023-02-14T04:23:57;103596.59;;;7.87;69.71
17785;BME280;9016;53.582;10.062;2023-02-14T04:26:26;103588.63;;;7.89;70.05
17785;BME280;9016;53.582;10.062;2023-02-14T04:28:54;103598.34;;;7.93;69.53
17785;BME280;9016;53.582;10.062;2023-02-14T04:31:22;103588.63;;;7.90;69.90
17785;BME280;9016;53.582;10.062;2023-02-14T04:33:50;103585.03;;;7.97;69.45
17785;BME280;9016;53.582;10.062;2023-02-14T04:36:19;103587.69;;;7.99;69.21
17785;BME280;9016;53.582;10.062;2023-02-14T04:38:49;103588.56;;;8.01;69.21
17785;BME280;9016;53.582;10.062;2023-02-14T04:41:17;103586.91;;;7.76;70.01
17785;BME280;9016;53.582;10.062;2023-02-14T04:43:46;103582.44;;;7.81;69.65
17785;BME280;9016;53.582;10.062;2023-02-14T04:46:14;103579.78;;;7.85;70.41
17785;BME280;9016;53.582;10.062;2023-02-14T04:48:42;103578.94;;;7.74;70.52
17785;BME280;9016;53.582;10.062;2023-02-14T04:51:10;103578.06;;;7.71;70.25
17785;BME280;9016;53.582;10.062;2023-02-14T04:53:38;103574.50;;;7.81;70.50
17785;BME280;9016;53.582;10.062;2023-02-14T04:56:06;103576.28;;;7.73;70.90
17785;BME280;9016;53.582;10.062;2023-02-14T04:58:34;103581.59;;;7.64;71.81
17785;BME280;9016;53.582;10.062;2023-02-14T05:01:04;103580.75;;;7.57;71.78
17785;BME280;9016;53.582;10.062;2023-02-14T05:03:32;103579.81;;;7.78;71.51
17785;BME280;9016;53.582;10.062;2023-02-14T05:06:00;103575.38;;;7.83;71.03
17785;BME280;9016;53.582;10.062;2023-02-14T05:08:28;103580.63;;;7.98;69.89
17785;BME280;9016;53.582;10.062;2023-02-14T05:10:56;103579.69;;;8.05;70.33
17785;BME280;9016;53.582;10.062;2023-02-14T05:13:24;103577.03;;;8.07;69.80
17785;BME280;9016;53.582;10.062;2023-02-14T05:15:52;103575.25;;;8.09;69.95
17785;BME280;9016;53.582;10.062;2023-02-14T05:18:21;103574.34;;;8.13;69.62
17785;BME280;9016;53.582;10.062;2023-02-14T05:20:50;103577.91;;;8.07;69.29
17785;BME280;9016;53.582;10.062;2023-02-14T05:23:18;103571.75;;;8.02;69.82
17785;BME280;9016;53.582;10.062;2023-02-14T05:25:48;103573.59;;;7.85;71.11
17785;BME280;9016;53.582;10.062;2023-02-14T05:28:16;103578.06;;;7.74;70.50
17785;BME280;9016;53.582;10.062;2023-02-14T05:30:45;103579.81;;;7.73;72.01
17785;BME280;9016;53.582;10.062;2023-02-14T05:33:13;103572.66;;;7.93;71.59
17785;BME280;9016;53.582;10.062;2023-02-14T05:35:42;103578.81;;;8.03;70.28
17785;BME280;9016;53.582;10.062;2023-02-14T05:38:10;103577.06;;;8.03;70.52
17785;BME280;9016;53.582;10.062;2023-02-14T05:40:39;103569.94;;;8.10;70.32
17785;BME280;9016;53.582;10.062;2023-02-14T05:43:07;103572.53;;;8.18;69.86
17785;BME280;9016;53.582;10.062;2023-02-14T05:45:36;103563.69;;;8.22;69.54
17785;BME280;9016;53.582;10.062;2023-02-14T05:48:04;103566.38;;;8.13;69.67
17785;BME280;9016;53.582;10.062;2023-02-14T05:50:32;103565.44;;;8.21;70.30
17785;BME280;9016;53.582;10.062;2023-02-14T05:53:01;103557.50;;;8.14;70.15
17785;BME280;9016;53.582;10.062;2023-02-14T05:55:30;103559.31;;;8.13;69.28
17785;BME280;9016;53.582;10.062;2023-02-14T05:57:58;103565.63;;;7.91;71.20
17785;BME280;9016;53.582;10.062;2023-02-14T06:00:26;103560.22;;;8.08;70.20
17785;BME280;9016;53.582;10.062;2023-02-14T06:02:54;103563.75;;;8.07;70.57
17785;BME280;9016;53.582;10.062;2023-02-14T06:05:22;103562.03;;;7.96;70.93
17785;BME280;9016;53.582;10.062;2023-02-14T06:07:50;103555.78;;;8.05;71.02
17785;BME280;9016;53.582;10.062;2023-02-14T06:10:21;103555.78;;;8.08;70.84
17785;BME280;9016;53.582;10.062;2023-02-14T06:12:51;103560.25;;;7.97;70.58
17785;BME280;9016;53.582;10.062;2023-02-14T06:15:20;103557.63;;;7.92;71.13
17785;BME280;9016;53.582;10.062;2023-02-14T06:17:50;103556.66;;;8.10;70.60
17785;BME280;9016;53.582;10.062;2023-02-14T06:20:19;103562.84;;;8.11;70.13
17785;BME280;9016;53.582;10.062;2023-02-14T06:22:47;103554.00;;;8.09;71.27
17785;BME280;9016;53.582;10.062;2023-02-14T06:25:15;103563.78;;;8.03;71.61
17785;BME280;9016;53.582;10.062;2023-02-14T06:27:45;103568.16;;;8.12;70.76
17785;BME280;9016;53.582;10.062;2023-02-14T06:30:15;103572.59;;;8.07;70.95
17785;BME280;9016;53.582;10.062;2023-02-14T06:32:44;103567.28;;;8.13;71.66
17785;BME280;9016;53.582;10.062;2023-02-14T06:35:12;103564.63;;;8.13;70.64
17785;BME280;9016;53.582;10.062;2023-02-14T06:37:40;103567.22;;;8.18;71.04
17785;BME280;9016;53.582;10.062;2023-02-14T06:40:12;103572.53;;;8.19;70.96
17785;BME280;9016;53.582;10.062;2023-02-14T06:42:40;103577.84;;;8.19;70.11
17785;BME280;9016;53.582;10.062;2023-02-14T06:45:10;103573.41;;;8.27;70.88
17785;BME280;9016;53.582;10.062;2023-02-14T06:47:38;103575.19;;;8.25;70.61
17785;BME280;9016;53.582;10.062;2023-02-14T06:50:07;103587.56;;;8.32;70.44
17785;BME280;9016;53.582;10.062;2023-02-14T06:52:37;103581.38;;;8.23;70.74
17785;BME280;9016;53.582;10.062;2023-02-14T06:55:06;103579.59;;;8.23;71.02
17785;BME280;9016;53.582;10.062;2023-02-14T06:57:34;103583.16;;;8.22;71.22
17785;BME280;9016;53.582;10.062;2023-02-14T07:00:03;103580.50;;;8.22;71.43
17785;BME280;9016;53.582;10.062;2023-02-14T07:02:32;103580.50;;;8.25;70.95
17785;BME280;9016;53.582;10.062;2023-02-14T07:05:00;103580.50;;;8.27;70.66
17785;BME280;9016;53.582;10.062;2023-02-14T07:07:28;103577.84;;;8.30;70.30
17785;BME280;9016;53.582;10.062;2023-02-14T07:09:56;103585.78;;;8.28;71.22
17785;BME280;9016;53.582;10.062;2023-02-14T07:12:26;103585.78;;;8.34;70.51
17785;BME280;9016;53.582;10.062;2023-02-14T07:14:54;103576.97;;;8.26;70.42
17785;BME280;9016;53.582;10.062;2023-02-14T07:17:22;103574.28;;;8.31;71.07
17785;BME280;9016;53.582;10.062;2023-02-14T07:19:51;103569.81;;;8.36;70.30
17785;BME280;9016;53.582;10.062;2023-02-14T07:22:19;103569.84;;;8.34;71.05
17785;BME280;9016;53.582;10.062;2023-02-14T07:24:47;103568.94;;;8.34;70.73
17785;BME280;9016;53.582;10.062;2023-02-14T07:27:15;103569.75;;;8.45;70.33
17785;BME280;9016;53.582;10.062;2023-02-14T07:29:43;103569.81;;;8.40;71.21
17785;BME280;9016;53.582;10.062;2023-02-14T07:32:11;103565.34;;;8.44;70.84
17785;BME280;9016;53.582;10.062;2023-02-14T07:34:39;103571.53;;;8.46;70.57
17785;BME280;9016;53.582;10.062;2023-02-14T07:37:08;103573.38;;;8.35;70.37
17785;BME280;9016;53.582;10.062;2023-02-14T07:39:36;103567.09;;;8.45;70.86
17785;BME280;9016;53.582;10.062;2023-02-14T07:42:04;103566.25;;;8.41;69.96
17785;BME280;9016;53.582;10.062;2023-02-14T07:44:34;103566.25;;;8.44;70.79
17785;BME280;9016;53.582;10.062;2023-02-14T07:47:04;103568.94;;;8.34;71.30
17785;BME280;9016;53.582;10.062;2023-02-14T07:49:32;103576.88;;;8.43;70.91
17785;BME280;9016;53.582;10.062;2023-02-14T07:52:01;103566.19;;;8.53;70.36
17785;BME280;9016;53.582;10.062;2023-02-14T07:54:30;103562.56;;;8.65;70.08
17785;BME280;9016;53.582;10.062;2023-02-14T07:56:58;103555.38;;;8.76;69.77
17785;BME280;9016;53.582;10.062;2023-02-14T07:59:26;103559.72;;;8.86;69.49
17785;BME280;9016;53.582;10.062;2023-02-14T08:01:54;103556.16;;;8.88;68.79
17785;BME280;9016;53.582;10.062;2023-02-14T08:04:23;103564.09;;;8.94;69.60
17785;BME280;9016;53.582;10.062;2023-02-14T08:06:52;103554.34;;;8.93;69.64
17785;BME280;9016;53.582;10.062;2023-02-14T08:09:21;103565.75;;;9.06;68.60
17785;BME280;9016;53.582;10.062;2023-02-14T08:11:53;103564.81;;;9.12;68.35
17785;BME280;9016;53.582;10.062;2023-02-14T08:14:39;103564.88;;;9.07;67.80
17785;BME280;9016;53.582;10.062;2023-02-14T08:17:07;103558.59;;;9.13;68.50
17785;BME280;9016;53.582;10.062;2023-02-14T08:19:36;103554.06;;;9.24;68.30
17785;BME280;9016;53.582;10.062;2023-02-14T08:22:04;103555.75;;;9.32;67.76
17785;BME280;9016;53.582;10.062;2023-02-14T08:24:33;103551.34;;;9.27;68.39
17785;BME280;9016;53.582;10.062;2023-02-14T08:27:02;103560.16;;;9.35;68.66
17785;BME280;9016;53.582;10.062;2023-02-14T08:29:31;103557.56;;;9.27;67.29
17785;BME280;9016;53.582;10.062;2023-02-14T08:31:58;103553.19;;;9.22;68.02
17785;BME280;9016;53.582;10.062;2023-02-14T08:34:27;103550.47;;;9.29;67.83
17785;BME280;9016;53.582;10.062;2023-02-14T08:36:55;103548.84;;;9.15;67.66
17785;BME280;9016;53.582;10.062;2023-02-14T08:39:23;103555.88;;;9.17;68.53
17785;BME280;9016;53.582;10.062;2023-02-14T08:41:51;103548.81;;;9.13;68.23
17785;BME280;9016;53.582;10.062;2023-02-14T08:44:20;103557.84;;;9.00;68.94
17785;BME280;9016;53.582;10.062;2023-02-14T08:46:48;103562.38;;;8.89;69.20
17785;BME280;9016;53.582;10.062;2023-02-14T08:49:16;103558.72;;;8.97;69.42
17785;BME280;9016;53.582;10.062;2023-02-14T08:51:44;103558.78;;;8.91;69.01
17785;BME280;9016;53.582;10.062;2023-02-14T08:54:12;103565.00;;;8.92;69.47
17785;BME280;9016;53.582;10.062;2023-02-14T08:56:40;103563.19;;;8.94;69.99
17785;BME280;9016;53.582;10.062;2023-02-14T08:59:08;103567.53;;;9.02;69.26
17785;BME280;9016;53.582;10.062;2023-02-14T09:01:37;103565.69;;;9.14;68.96
17785;BME280;9016;53.582;10.062;2023-02-14T09:04:05;103567.53;;;9.04;69.32
17785;BME280;9016;53.582;10.062;2023-02-14T09:06:36;103564.94;;;8.96;69.32
17785;BME280;9016;53.582;10.062;2023-02-14T09:09:04;103559.66;;;8.92;69.07
17785;BME280;9016;53.582;10.062;2023-02-14T09:11:32;103557.81;;;8.98;69.34
17785;BME280;9016;53.582;10.062;2023-02-14T09:14:00;103550.78;;;8.96;69.14
17785;BME280;9016;53.582;10.062;2023-02-14T09:16:28;103555.13;;;9.03;69.54
17785;BME280;9016;53.582;10.062;2023-02-14T09:18:58;103554.16;;;9.12;69.13
17785;BME280;9016;53.582;10.062;2023-02-14T09:21:27;103541.66;;;9.21;69.47
17785;BME280;9016;53.582;10.062;2023-02-14T09:23:56;103544.34;;;9.18;68.93
17785;BME280;9016;53.582;10.062;2023-02-14T09:26:24;103547.88;;;9.19;68.19
17785;BME280;9016;53.582;10.062;2023-02-14T09:28:52;103545.19;;;9.23;68.36
17785;BME280;9016;53.582;10.062;2023-02-14T09:31:21;103544.19;;;9.32;68.76
17785;BME280;9016;53.582;10.062;2023-02-14T09:33:50;103542.44;;;9.31;68.64
17785;BME280;9016;53.582;10.062;2023-02-14T09:36:37;103551.44;;;9.18;68.71
17785;BME280;9016;53.582;10.062;2023-02-14T09:39:06;103536.28;;;9.24;68.32
17785;BME280;9016;53.582;10.062;2023-02-14T09:44:38;103533.56;;;9.32;68.54
17785;BME280;9016;53.582;10.062;2023-02-14T09:47:17;103532.66;;;9.34;68.54
17785;BME280;9016;53.582;10.062;2023-02-14T09:49:46;103523.69;;;9.44;68.80
17785;BME280;9016;53.582;10.062;2023-02-14T09:52:19;103527.16;;;9.51;68.31
17785;BME280;9016;53.582;10.062;2023-02-14T09:54:54;103526.03;;;9.68;68.25
17785;BME280;9016;53.582;10.062;2023-02-14T09:57:28;103523.34;;;9.71;66.90
17785;BME280;9016;53.582;10.062;2023-02-14T10:00:10;103522.31;;;9.83;67.48
17785;BME280;9016;53.582;10.062;2023-02-14T10:02:47;103526.69;;;9.87;67.73
17785;BME280;9016;53.582;10.062;2023-02-14T10:05:20;103523.16;;;9.86;66.92
17785;BME280;9016;53.582;10.062;2023-02-14T10:07:58;103514.13;;;9.96;66.87
17785;BME280;9016;53.582;10.062;2023-02-14T10:10:30;103514.94;;;10.03;66.50
17785;BME280;9016;53.582;10.062;2023-02-14T10:13:04;103517.63;;;10.00;66.62
17785;BME280;9016;53.582;10.062;2023-02-14T10:15:37;103517.72;;;9.95;67.16
17785;BME280;9016;53.582;10.062;2023-02-14T10:18:11;103521.34;;;9.87;66.71
17785;BME280;9016;53.582;10.062;2023-02-14T10:20:43;103524.06;;;9.84;68.10
17785;BME280;9016;53.582;10.062;2023-02-14T10:23:26;103517.56;;;10.06;67.53
17785;BME280;9016;53.582;10.062;2023-02-14T10:25:59;103521.97;;;10.09;67.35
17785;BME280;9016;53.582;10.062;2023-02-14T10:28:32;103524.56;;;10.15;66.57
17785;BME280;9016;53.582;10.062;2023-02-14T10:31:20;103517.53;;;10.11;66.90
17785;BME280;9016;53.582;10.062;2023-02-14T10:33:52;103512.31;;;10.00;66.78
17785;BME280;9016;53.582;10.062;2023-02-14T10:36:41;103505.06;;;10.11;67.00
17785;BME280;9016;53.582;10.062;2023-02-14T10:42:16;103510.34;;;10.16;66.97
17785;BME280;9016;53.582;10.062;2023-02-14T10:44:53;103503.13;;;10.25;66.97
17785;BME280;9016;53.582;10.062;2023-02-14T10:47:35;103497.78;;;10.25;66.58
17785;BME280;9016;53.582;10.062;2023-02-14T10:50:19;103500.41;;;10.27;66.66
17785;BME280;9016;53.582;10.062;2023-02-14T10:52:56;103499.41;;;10.34;66.36
17785;BME280;9016;53.582;10.062;2023-02-14T10:55:38;103494.19;;;10.26;66.61
17785;BME280;9016;53.582;10.062;2023-02-14T10:58:15;103491.34;;;10.37;67.03
17785;BME280;9016;53.582;10.062;2023-02-14T11:00:52;103498.31;;;10.47;66.89
17785;BME280;9016;53.582;10.062;2023-02-14T11:03:23;103495.75;;;10.41;67.60
17785;BME280;9016;53.582;10.062;2023-02-14T11:05:51;103493.75;;;10.53;66.30
17785;BME280;9016;53.582;10.062;2023-02-14T11:08:31;103492.75;;;10.62;65.64
17785;BME280;9016;53.582;10.062;2023-02-14T11:11:09;103486.34;;;10.73;65.76
17785;BME280;9016;53.582;10.062;2023-02-14T11:13:40;103483.47;;;10.84;65.94
17785;BME280;9016;53.582;10.062;2023-02-14T11:16:11;103482.41;;;10.92;65.50
17785;BME280;9016;53.582;10.062;2023-02-14T11:18:39;103485.44;;;10.73;65.98
17785;BME280;9016;53.582;10.062;2023-02-14T11:21:09;103480.97;;;10.75;65.82
17785;BME280;9016;53.582;10.062;2023-02-14T11:23:39;103476.38;;;10.81;65.63
17785;BME280;9016;53.582;10.062;2023-02-14T11:26:15;103470.94;;;10.87;65.62
17785;BME280;9016;53.582;10.062;2023-02-14T11:28:53;103471.81;;;10.89;65.00
17785;BME280;9016;53.582;10.062;2023-02-14T11:31:25;103458.38;;;10.95;65.44
17785;BME280;9016;53.582;10.062;2023-02-14T11:33:54;103449.63;;;10.87;65.74
17785;BME280;9016;53.582;10.062;2023-02-14T11:36:22;103448.84;;;10.79;65.34
17785;BME280;9016;53.582;10.062;2023-02-14T11:38:55;103451.47;;;10.84;65.37
17785;BME280;9016;53.582;10.062;2023-02-14T11:41:45;103442.66;;;10.79;65.52
17785;BME280;9016;53.582;10.062;2023-02-14T11:44:15;103448.00;;;10.77;65.92
17785;BME280;9016;53.582;10.062;2023-02-14T11:46:49;103437.22;;;10.83;65.52
17785;BME280;9016;53.582;10.062;2023-02-14T11:49:25;103430.94;;;10.87;65.80
17785;BME280;9016;53.582;10.062;2023-02-14T11:51:56;103437.91;;;10.94;65.74
17785;BME280;9016;53.582;10.062;2023-02-14T11:54:28;103428.34;;;10.83;65.94
17785;BME280;9016;53.582;10.062;2023-02-14T11:57:04;103427.19;;;10.96;66.01
17785;BME280;9016;53.582;10.062;2023-02-14T11:59:39;103421.72;;;11.04;65.18
17785;BME280;9016;53.582;10.062;2023-02-14T12:02:24;103416.91;;;11.22;65.15
17785;BME280;9016;53.582;10.062;2023-02-14T12:04:57;103408.03;;;11.20;65.63
17785;BME280;9016;53.582;10.062;2023-02-14T12:07:29;103412.34;;;11.29;64.47
17785;BME280;9016;53.582;10.062;2023-02-14T12:10:21;103408.47;;;11.42;65.04
17785;BME280;9016;53.582;10.062;2023-02-14T12:12:54;103401.50;;;11.35;64.98
17785;BME280;9016;53.582;10.062;2023-02-14T12:15:30;103395.13;;;11.42;65.74
17785;BME280;9016;53.582;10.062;2023-02-14T12:18:21;103392.53;;;11.39;63.97
17785;BME280;9016;53.582;10.062;2023-02-14T12:20:55;103391.59;;;11.41;64.49
17785;BME280;9016;53.582;10.062;2023-02-14T12:23:34;103389.56;;;11.52;65.32
17785;BME280;9016;53.582;10.062;2023-02-14T12:26:12;103385.13;;;11.51;63.68
17785;BME280;9016;53.582;10.062;2023-02-14T12:28:50;103377.78;;;11.61;63.82
17785;BME280;9016;53.582;10.062;2023-02-14T12:31:23;103381.47;;;11.55;63.40
17785;BME280;9016;53.582;10.062;2023-02-14T12:33:53;103382.41;;;11.53;64.29
17785;BME280;9016;53.582;10.062;2023-02-14T12:36:32;103385.88;;;11.58;63.24
17785;BME280;9016;53.582;10.062;2023-02-14T12:39:16;103383.16;;;11.59;63.50
17785;BME280;9016;53.582;10.062;2023-02-14T12:41:57;103386.50;;;11.70;63.51
17785;BME280;9016;53.582;10.062;2023-02-14T12:44:38;103376.75;;;11.68;63.16
17785;BME280;9016;53.582;10.062;2023-02-14T12:47:16;103375.03;;;11.67;63.16
17785;BME280;9016;53.582;10.062;2023-02-14T12:50:10;103367.81;;;11.70;62.43
17785;BME280;9016;53.582;10.062;2023-02-14T12:52:56;103360.47;;;11.80;62.70
17785;BME280;9016;53.582;10.062;2023-02-14T12:55:44;103360.44;;;11.81;62.61
17785;BME280;9016;53.582;10.062;2023-02-14T12:58:23;103355.25;;;11.74;63.05
17785;BME280;9016;53.582;10.062;2023-02-14T13:01:06;103359.44;;;11.85;63.28
17785;BME280;9016;53.582;10.062;2023-02-14T13:03:46;103348.81;;;11.84;63.11
17785;BME280;9016;53.582;10.062;2023-02-14T13:06:22;103339.66;;;11.92;62.93
17785;BME280;9016;53.582;10.062;2023-02-14T13:09:16;103330.72;;;11.93;62.44
17785;BME280;9016;53.582;10.062;2023-02-14T13:11:54;103330.72;;;11.93;62.83
17785;BME280;9016;53.582;10.062;2023-02-14T13:14:39;103325.38;;;11.93;62.44
17785;BME280;9016;53.582;10.062;2023-02-14T13:17:19;103321.84;;;11.93;62.66
17785;BME280;9016;53.582;10.062;2023-02-14T13:19:58;103325.59;;;11.84;62.79
17785;BME280;9016;53.582;10.062;2023-02-14T13:22:29;103331.25;;;11.72;62.89
17785;BME280;9016;53.582;10.062;2023-02-14T13:25:04;103320.66;;;11.68;63.83
17785;BME280;9016;53.582;10.062;2023-02-14T13:27:36;103317.63;;;11.83;63.02
17785;BME280;9016;53.582;10.062;2023-02-14T13:30:12;103307.28;;;12.06;62.90
17785;BME280;9016;53.582;10.062;2023-02-14T13:32:49;103305.19;;;12.17;62.55